createdAt,value
2019-03-28T00:00:01.335Z,13.88
2019-03-28T00:02:29.463Z,15.00
2019-03-28T00:04:57.612Z,13.13
2019-03-28T00:07:25.738Z,13.65
2019-03-28T00:09:54.029Z,16.43
2019-03-28T00:12:22.155Z,13.63
2019-03-28T00:14:50.312Z,14.83
2019-03-28T00:17:18.540Z,16.60
2019-03-28T00:19:46.782Z,15.50
2019-03-28T00:22:17.272Z,21.42
2019-03-28T00:24:47.389Z,16.33
2019-03-28T00:27:15.749Z,18.48
2019-03-28T00:29:43.864Z,14.63
2019-03-28T00:32:12.392Z,19.50
2019-03-28T00:34:40.596Z,13.50
2019-03-28T00:37:09.113Z,13.87
2019-03-28T00:39:37.420Z,16.00
2019-03-28T00:42:05.529Z,16.20
2019-03-28T00:44:33.644Z,15.93
2019-03-28T00:47:01.788Z,15.50
2019-03-28T00:49:29.932Z,15.37
2019-03-28T00:51:58.078Z,17.93
2019-03-28T00:54:26.275Z,16.90
2019-03-28T00:56:54.387Z,18.30
2019-03-28T00:59:22.532Z,17.10
2019-03-28T01:01:50.655Z,19.90
2019-03-28T01:04:18.859Z,18.30
2019-03-28T01:06:46.969Z,15.40
2019-03-28T01:09:15.127Z,20.23
2019-03-28T01:11:43.355Z,20.60
2019-03-28T01:14:11.535Z,19.47
2019-03-28T01:16:39.784Z,21.50
2019-03-28T01:19:07.935Z,20.73
2019-03-28T01:21:36.057Z,25.20
2019-03-28T01:24:04.257Z,23.10
2019-03-28T01:26:32.424Z,27.63
2019-03-28T01:29:01.340Z,23.97
2019-03-28T01:31:31.148Z,22.00
2019-03-28T01:33:59.260Z,18.43
2019-03-28T01:36:27.367Z,25.77
2019-03-28T01:38:55.502Z,27.10
2019-03-28T01:41:23.623Z,22.87
2019-03-28T01:43:52.280Z,26.33
2019-03-28T01:46:23.379Z,23.27
2019-03-28T01:48:51.657Z,27.97
2019-03-28T01:51:20.536Z,25.67
2019-03-28T01:53:48.652Z,30.53
2019-03-28T01:56:16.796Z,28.53
2019-03-28T01:58:44.947Z,17.33
2019-03-28T02:01:13.112Z,19.70
2019-03-28T02:03:41.295Z,23.32
2019-03-28T02:06:09.417Z,19.20
2019-03-28T02:08:37.622Z,21.35
2019-03-28T02:11:05.760Z,15.10
2019-03-28T02:13:37.880Z,19.57
2019-03-28T02:16:06.124Z,17.87
2019-03-28T02:18:34.252Z,15.73
2019-03-28T02:21:02.477Z,13.18
2019-03-28T02:23:30.606Z,13.30
2019-03-28T02:25:58.731Z,17.55
2019-03-28T02:28:26.914Z,15.60
2019-03-28T02:30:55.053Z,15.93
2019-03-28T02:33:23.214Z,17.20
2019-03-28T02:35:51.367Z,17.50
2019-03-28T02:38:19.476Z,17.67
2019-03-28T02:40:47.627Z,17.53
2019-03-28T02:43:15.987Z,16.80
2019-03-28T02:45:44.221Z,14.27
2019-03-28T02:48:13.109Z,20.15
2019-03-28T02:50:41.312Z,19.57
2019-03-28T02:53:09.501Z,19.33
2019-03-28T02:55:37.634Z,21.73
2019-03-28T02:58:05.863Z,16.63
2019-03-28T03:00:34.056Z,21.97
2019-03-28T03:03:02.267Z,18.90
2019-03-28T03:05:33.353Z,21.07
2019-03-28T03:08:01.452Z,22.83
2019-03-28T03:10:31.015Z,24.53
2019-03-28T03:12:59.201Z,18.50
2019-03-28T03:15:27.403Z,17.37
2019-03-28T03:17:55.513Z,19.43
2019-03-28T03:20:23.641Z,14.27
2019-03-28T03:22:51.746Z,14.93
2019-03-28T03:25:19.853Z,14.83
2019-03-28T03:27:57.680Z,13.33
2019-03-28T03:30:18.836Z,17.40
2019-03-28T03:32:46.989Z,13.60
2019-03-28T03:35:15.180Z,17.37
2019-03-28T03:37:43.372Z,11.73
2019-03-28T03:40:11.651Z,16.67
2019-03-28T03:42:39.780Z,17.73
2019-03-28T03:45:09.350Z,14.30
2019-03-28T03:47:37.949Z,14.47
2019-03-28T03:50:07.199Z,16.17
2019-03-28T03:52:35.321Z,20.80
2019-03-28T03:55:05.436Z,19.00
2019-03-28T03:57:33.556Z,13.57
2019-03-28T04:00:01.687Z,16.07
2019-03-28T04:02:29.793Z,19.03
2019-03-28T04:04:57.908Z,14.03
2019-03-28T04:07:25.999Z,15.80
2019-03-28T04:09:57.740Z,15.30
2019-03-28T04:12:26.495Z,16.07
2019-03-28T04:14:54.616Z,19.67
2019-03-28T04:17:22.769Z,16.57
2019-03-28T04:19:50.880Z,17.98
2019-03-28T04:22:19.089Z,13.70
2019-03-28T04:24:47.731Z,17.57
2019-03-28T04:27:16.257Z,16.53
2019-03-28T04:29:44.452Z,13.50
2019-03-28T04:32:12.634Z,16.77
2019-03-28T04:34:40.830Z,25.60
2019-03-28T04:37:08.981Z,18.57
2019-03-28T04:39:37.242Z,17.27
2019-03-28T04:42:05.430Z,13.83
2019-03-28T04:44:33.541Z,19.33
2019-03-28T04:47:01.660Z,16.93
2019-03-28T04:49:29.810Z,16.20
2019-03-28T04:51:57.994Z,18.17
2019-03-28T04:54:26.119Z,21.60
2019-03-28T04:56:54.328Z,17.20
2019-03-28T04:59:22.428Z,17.60
2019-03-28T05:02:02.496Z,17.83
2019-03-28T05:04:21.236Z,16.32
2019-03-28T05:06:50.328Z,22.67
2019-03-28T05:09:18.572Z,17.07
2019-03-28T05:11:46.755Z,14.15
2019-03-28T05:14:14.873Z,17.73
2019-03-28T05:16:43.028Z,20.77
2019-03-28T05:19:11.278Z,20.23
2019-03-28T05:21:39.432Z,14.30
2019-03-28T05:24:07.543Z,14.93
2019-03-28T05:26:35.721Z,22.50
2019-03-28T05:29:03.987Z,19.67
2019-03-28T05:31:32.907Z,19.03
2019-03-28T05:34:01.027Z,18.57
2019-03-28T05:36:29.152Z,16.97
2019-03-28T05:38:57.270Z,17.97
2019-03-28T05:41:25.379Z,20.33
2019-03-28T05:43:53.569Z,17.57
2019-03-28T05:46:21.782Z,16.13
2019-03-28T05:48:49.971Z,16.77
2019-03-28T05:51:18.115Z,20.97
2019-03-28T05:53:46.574Z,20.90
2019-03-28T05:56:15.005Z,18.37
2019-03-28T05:58:43.193Z,19.87
2019-03-28T06:01:11.306Z,17.75
2019-03-28T06:03:41.023Z,17.27
2019-03-28T06:06:09.224Z,18.80
2019-03-28T06:08:37.388Z,22.40
2019-03-28T06:11:05.579Z,15.37
2019-03-28T06:13:33.733Z,20.93
2019-03-28T06:16:01.840Z,17.57
2019-03-28T06:18:30.000Z,27.17
2019-03-28T06:20:59.593Z,16.07
2019-03-28T06:23:27.910Z,16.37
2019-03-28T06:25:56.034Z,20.47
2019-03-28T06:28:24.179Z,20.80
2019-03-28T06:30:54.630Z,15.63
2019-03-28T06:33:22.775Z,19.40
2019-03-28T06:35:50.930Z,18.98
2019-03-28T06:38:19.201Z,17.83
2019-03-28T06:40:47.459Z,22.32
2019-03-28T06:43:15.677Z,19.63
2019-03-28T06:45:43.887Z,17.63
2019-03-28T06:48:12.103Z,15.58
2019-03-28T06:50:40.221Z,22.13
2019-03-28T06:53:08.437Z,24.07
2019-03-28T06:55:37.074Z,19.10
2019-03-28T06:58:05.425Z,23.05
2019-03-28T07:00:33.570Z,20.17
2019-03-28T07:03:01.760Z,19.92
2019-03-28T07:05:29.863Z,23.63
2019-03-28T07:07:58.829Z,21.90
2019-03-28T07:10:26.986Z,22.50
2019-03-28T07:12:55.103Z,19.97
2019-03-28T07:15:23.340Z,19.87
2019-03-28T07:17:51.460Z,21.33
2019-03-28T07:20:19.572Z,15.27
2019-03-28T07:22:47.696Z,18.23
2019-03-28T07:25:16.626Z,22.20
2019-03-28T07:27:44.838Z,28.52
2019-03-28T07:30:13.546Z,20.73
2019-03-28T07:32:43.358Z,22.10
2019-03-28T07:35:11.641Z,18.33
2019-03-28T07:37:39.975Z,26.07
2019-03-28T07:40:08.306Z,20.73
2019-03-28T07:42:36.524Z,23.18
2019-03-28T07:45:05.818Z,24.23
2019-03-28T07:47:34.684Z,20.73
2019-03-28T07:50:03.657Z,18.87
2019-03-28T07:52:31.793Z,25.13
2019-03-28T07:55:01.887Z,30.37
2019-03-28T07:57:29.767Z,28.97
2019-03-28T08:00:04.113Z,38.77
2019-03-28T08:02:27.794Z,24.75
2019-03-28T08:04:56.124Z,25.02
2019-03-28T08:07:24.253Z,24.00
2019-03-28T08:09:52.368Z,36.73
2019-03-28T08:12:23.018Z,22.83
2019-03-28T08:14:50.377Z,31.07
2019-03-28T08:17:18.663Z,32.60
2019-03-28T08:19:46.800Z,25.40
2019-03-28T08:22:15.364Z,28.47
2019-03-28T08:24:43.635Z,35.37
2019-03-28T08:27:11.853Z,25.70
2019-03-28T08:29:40.035Z,39.70
2019-03-28T08:32:09.831Z,23.63
2019-03-28T08:34:38.077Z,31.27
2019-03-28T08:37:06.366Z,30.00
2019-03-28T08:39:34.552Z,51.40
2019-03-28T08:42:02.724Z,33.00
2019-03-28T08:44:31.249Z,27.97
2019-03-28T08:46:59.410Z,28.43
2019-03-28T08:49:27.542Z,30.33
2019-03-28T08:51:55.687Z,38.15
2019-03-28T08:54:23.856Z,26.70
2019-03-28T08:56:51.977Z,29.35
2019-03-28T08:59:20.247Z,27.17
2019-03-28T09:01:48.428Z,37.97
2019-03-28T09:04:16.618Z,34.20
2019-03-28T09:06:44.803Z,36.57
2019-03-28T09:09:12.993Z,30.08
2019-03-28T09:11:41.111Z,30.30
2019-03-28T09:14:09.232Z,37.00
2019-03-28T09:16:37.403Z,30.47
2019-03-28T09:19:06.400Z,32.10
2019-03-28T09:21:34.592Z,34.83
2019-03-28T09:24:02.804Z,33.87
2019-03-28T09:26:30.942Z,49.70
2019-03-28T09:28:59.151Z,30.60
2019-03-28T09:31:27.366Z,43.60
2019-03-28T09:33:55.538Z,37.63
2019-03-28T09:36:24.488Z,40.40
2019-03-28T09:38:52.629Z,34.03
2019-03-28T09:41:20.909Z,28.23
2019-03-28T09:43:55.207Z,31.87
2019-03-28T09:46:18.972Z,32.80
2019-03-28T09:48:47.077Z,31.17
2019-03-28T09:51:15.220Z,33.63
2019-03-28T09:53:43.388Z,29.00
2019-03-28T09:56:13.697Z,30.17
2019-03-28T09:58:41.852Z,36.33
2019-03-28T10:01:10.004Z,33.87
2019-03-28T10:03:38.115Z,33.20
2019-03-28T10:06:06.315Z,39.87
2019-03-28T10:08:34.475Z,33.57
2019-03-28T10:11:02.588Z,39.15
2019-03-28T10:13:30.723Z,33.90
2019-03-28T10:15:59.173Z,22.05
2019-03-28T10:18:29.980Z,21.57
2019-03-28T10:20:57.172Z,27.93
2019-03-28T10:23:25.346Z,19.63
2019-03-28T10:25:53.553Z,16.00
2019-03-28T10:28:21.675Z,18.73
2019-03-28T10:30:49.813Z,12.77
2019-03-28T10:33:17.925Z,10.53
2019-03-28T10:35:46.149Z,13.47
2019-03-28T10:38:14.352Z,22.17
2019-03-28T10:40:42.478Z,16.27
2019-03-28T10:43:10.614Z,12.97
2019-03-28T10:45:42.297Z,14.20
2019-03-28T10:48:10.242Z,18.70
2019-03-28T10:50:45.346Z,21.53
2019-03-28T10:53:08.446Z,21.40
2019-03-28T10:55:38.747Z,19.97
2019-03-28T10:58:17.527Z,24.37
2019-03-28T11:00:37.724Z,25.03
2019-03-28T11:05:40.674Z,22.27
2019-03-28T11:08:09.130Z,33.90
2019-03-28T11:10:37.339Z,27.07
2019-03-28T11:13:05.467Z,25.53
2019-03-28T11:15:33.595Z,51.67
2019-03-28T11:18:01.776Z,22.98
2019-03-28T11:20:29.973Z,22.10
2019-03-28T11:23:02.133Z,19.13
2019-03-28T11:25:28.852Z,23.30
2019-03-28T11:27:57.087Z,18.77
2019-03-28T11:30:25.762Z,15.70
2019-03-28T11:32:54.212Z,23.03
2019-03-28T11:35:23.940Z,18.17
2019-03-28T11:37:52.108Z,22.23
2019-03-28T11:40:20.466Z,18.77
2019-03-28T11:42:51.813Z,15.33
2019-03-28T11:45:20.848Z,16.00
2019-03-28T11:47:49.051Z,14.53
2019-03-28T11:50:17.468Z,14.37
2019-03-28T11:52:47.595Z,13.37
2019-03-28T11:55:17.437Z,14.93
2019-03-28T11:57:45.793Z,15.57
2019-03-28T12:00:16.149Z,19.37
2019-03-28T12:02:46.129Z,16.87
2019-03-28T12:05:14.328Z,13.50
2019-03-28T12:07:42.540Z,13.97
2019-03-28T12:10:11.323Z,15.20
2019-03-28T12:12:40.733Z,15.47
2019-03-28T12:15:09.319Z,16.10
2019-03-28T12:17:37.531Z,17.43
2019-03-28T12:20:06.326Z,15.97
2019-03-28T12:22:34.519Z,14.40
2019-03-28T12:25:03.115Z,17.05
2019-03-28T12:27:31.323Z,20.50
2019-03-28T12:30:00.089Z,28.43
2019-03-28T12:32:28.358Z,18.00
2019-03-28T12:34:56.791Z,17.33
2019-03-28T12:37:24.952Z,21.43
2019-03-28T12:39:53.062Z,15.67
2019-03-28T12:42:21.287Z,21.82
2019-03-28T12:44:56.817Z,17.10
2019-03-28T12:47:19.550Z,21.33
2019-03-28T12:49:47.786Z,18.47
2019-03-28T12:52:15.968Z,15.50
2019-03-28T12:54:44.330Z,22.33
2019-03-28T12:57:14.424Z,18.10
2019-03-28T12:59:42.561Z,18.15
2019-03-28T13:02:10.708Z,16.70
2019-03-28T13:04:38.894Z,14.60
2019-03-28T13:07:07.089Z,18.00
2019-03-28T13:09:35.863Z,19.03
2019-03-28T13:12:04.308Z,22.17
2019-03-28T13:14:32.763Z,17.60
2019-03-28T13:17:01.742Z,16.47
2019-03-28T13:19:29.870Z,18.43
2019-03-28T13:21:58.146Z,25.48
2019-03-28T13:24:26.310Z,20.87
2019-03-28T13:26:54.417Z,19.70
2019-03-28T13:29:22.568Z,18.33
2019-03-28T13:31:50.838Z,18.20
2019-03-28T13:34:19.035Z,15.70
2019-03-28T13:36:47.140Z,14.40
2019-03-28T13:39:15.284Z,15.63
2019-03-28T13:41:44.481Z,15.90
2019-03-28T13:44:13.424Z,15.88
2019-03-28T13:46:41.549Z,27.87
2019-03-28T13:49:10.475Z,26.77
2019-03-28T13:51:38.653Z,17.63
2019-03-28T13:54:06.796Z,15.30
2019-03-28T13:56:34.928Z,15.13
2019-03-28T13:59:03.081Z,15.17
2019-03-28T14:01:31.213Z,16.90
2019-03-28T14:03:59.331Z,17.73
2019-03-28T14:06:27.454Z,16.07
2019-03-28T14:08:55.657Z,20.33
2019-03-28T14:11:24.024Z,17.07
2019-03-28T14:13:52.299Z,17.73
2019-03-28T14:16:20.410Z,15.53
2019-03-28T14:18:48.695Z,19.62
2019-03-28T14:21:16.891Z,15.80
2019-03-28T14:23:45.085Z,17.57
2019-03-28T14:26:13.189Z,12.33
2019-03-28T14:28:42.081Z,15.37
2019-03-28T14:31:10.213Z,17.47
2019-03-28T14:33:38.379Z,17.00
2019-03-28T14:36:07.747Z,13.85
2019-03-28T14:38:39.040Z,16.63
2019-03-28T14:41:07.262Z,18.07
2019-03-28T14:43:36.526Z,14.13
2019-03-28T14:46:06.314Z,15.10
2019-03-28T14:48:36.219Z,23.03
2019-03-28T14:51:04.584Z,12.43
2019-03-28T14:53:34.410Z,18.70
2019-03-28T14:56:07.384Z,15.43
2019-03-28T14:58:36.378Z,16.67
2019-03-28T15:01:07.807Z,18.23
2019-03-28T15:03:37.771Z,19.90
2019-03-28T15:06:05.989Z,21.63
2019-03-28T15:08:34.128Z,18.17
2019-03-28T15:11:02.348Z,17.80
2019-03-28T15:13:30.610Z,18.20
2019-03-28T15:15:58.853Z,19.60
2019-03-28T15:18:27.138Z,20.63
2019-03-28T15:20:55.265Z,21.17
2019-03-28T15:23:26.233Z,17.50
2019-03-28T15:25:55.479Z,20.30
2019-03-28T15:28:25.052Z,21.40
2019-03-28T15:30:53.301Z,18.35
2019-03-28T15:33:21.523Z,19.13
2019-03-28T15:35:49.716Z,18.00
2019-03-28T15:38:17.894Z,22.00
2019-03-28T15:40:46.851Z,22.13
2019-03-28T15:43:15.001Z,34.83
2019-03-28T15:45:43.244Z,18.93
2019-03-28T15:48:11.364Z,26.30
2019-03-28T15:50:40.752Z,32.33
2019-03-28T15:53:09.007Z,23.60
2019-03-28T15:55:37.118Z,21.77
2019-03-28T15:58:05.840Z,45.67
2019-03-28T16:00:34.025Z,22.37
2019-03-28T16:03:02.173Z,28.87
2019-03-28T16:05:30.387Z,23.93
2019-03-28T16:07:59.388Z,22.60
2019-03-28T16:10:27.834Z,22.73
2019-03-28T16:12:56.037Z,30.57
2019-03-28T16:15:24.221Z,30.23
2019-03-28T16:17:52.383Z,24.03
2019-03-28T16:20:23.684Z,25.27
2019-03-28T16:22:51.880Z,22.40
2019-03-28T16:25:21.729Z,25.13
2019-03-28T16:27:49.845Z,22.67
2019-03-28T16:32:53.504Z,26.27
2019-03-28T16:35:21.727Z,24.67
2019-03-28T16:37:51.086Z,27.33
2019-03-28T16:40:19.685Z,20.50
2019-03-28T16:42:47.928Z,23.53
2019-03-28T16:45:17.776Z,26.50
2019-03-28T16:47:45.919Z,26.17
2019-03-28T16:50:14.547Z,21.93
2019-03-28T16:52:43.841Z,21.60
2019-03-28T16:55:25.760Z,23.67
2019-03-28T16:57:46.801Z,18.87
2019-03-28T17:00:15.127Z,17.98
2019-03-28T17:02:43.359Z,21.55
2019-03-28T17:05:13.996Z,20.40
2019-03-28T17:07:43.319Z,22.13
2019-03-28T17:10:12.980Z,18.80
2019-03-28T17:12:48.500Z,17.30
2019-03-28T17:15:19.563Z,20.53
2019-03-28T17:17:47.715Z,21.97
2019-03-28T17:20:15.919Z,20.63
2019-03-28T17:22:44.143Z,16.77
2019-03-28T17:25:12.434Z,17.87
2019-03-28T17:27:41.253Z,17.70
2019-03-28T17:30:15.915Z,18.10
2019-03-28T17:32:43.461Z,25.97
2019-03-28T17:35:12.992Z,21.63
2019-03-28T17:37:42.101Z,17.87
2019-03-28T17:40:10.398Z,20.67
2019-03-28T17:42:40.078Z,18.57
2019-03-28T17:45:08.426Z,18.32
2019-03-28T17:47:37.205Z,18.10
2019-03-28T17:50:06.343Z,16.62
2019-03-28T17:52:34.487Z,22.47
2019-03-28T17:55:06.436Z,16.27
2019-03-28T17:57:34.630Z,16.17
2019-03-28T18:00:04.015Z,37.87
2019-03-28T18:02:32.214Z,25.90
2019-03-28T18:05:09.271Z,16.97
2019-03-28T18:07:30.288Z,18.70
2019-03-28T18:09:58.485Z,19.37
2019-03-28T18:12:26.680Z,18.20
2019-03-28T18:14:54.882Z,17.43
2019-03-28T18:17:34.911Z,19.67
2019-03-28T18:20:04.441Z,19.60
2019-03-28T18:22:36.982Z,21.00
2019-03-28T18:25:09.000Z,22.60
2019-03-28T18:27:39.134Z,22.07
2019-03-28T18:30:07.438Z,18.90
2019-03-28T18:32:39.276Z,25.87
2019-03-28T18:35:08.047Z,23.05
2019-03-28T18:37:38.939Z,24.37
2019-03-28T18:40:07.371Z,33.30
2019-03-28T18:42:35.574Z,29.97
2019-03-28T18:45:08.188Z,24.33
2019-03-28T19:05:42.174Z,35.80
2019-03-28T19:08:10.360Z,36.48
2019-03-28T19:10:38.786Z,36.77
2019-03-28T19:13:07.293Z,35.30
2019-03-28T19:15:35.471Z,38.93
2019-03-28T19:18:03.808Z,37.73
2019-03-28T19:20:33.293Z,36.65
2019-03-28T19:23:03.288Z,38.87
2019-03-28T19:25:31.447Z,41.63
2019-03-28T19:27:59.664Z,32.77
2019-03-28T19:30:34.035Z,38.13
2019-03-28T19:33:07.083Z,36.53
2019-03-28T19:35:36.331Z,32.10
2019-03-28T19:38:04.570Z,39.10
2019-03-28T19:40:32.916Z,49.67
2019-03-28T19:43:01.396Z,43.10
2019-03-28T19:45:36.422Z,50.40
2019-03-28T19:48:06.849Z,44.60
2019-03-28T19:50:35.056Z,44.27
2019-03-28T19:53:03.323Z,51.23
2019-03-28T19:55:31.645Z,45.93
2019-03-28T19:57:59.842Z,48.83
2019-03-28T20:00:28.146Z,50.80
2019-03-28T20:02:56.263Z,51.55
2019-03-28T20:05:24.472Z,51.07
2019-03-28T20:07:52.935Z,53.87
2019-03-28T20:10:21.271Z,52.03
2019-03-28T20:12:49.514Z,49.50
2019-03-28T20:15:17.743Z,51.33
2019-03-28T20:17:48.088Z,53.93
2019-03-28T20:20:15.935Z,49.63
2019-03-28T20:22:45.090Z,54.50
2019-03-28T20:25:14.229Z,55.37
2019-03-28T20:27:42.441Z,55.17
2019-03-28T20:30:10.779Z,60.67
2019-03-28T20:32:38.979Z,61.63
2019-03-28T20:35:10.330Z,62.90
2019-03-28T20:37:37.920Z,61.55
2019-03-28T20:40:06.828Z,54.47
2019-03-28T20:42:35.196Z,59.38
2019-03-28T20:45:04.223Z,56.80
2019-03-28T20:47:32.510Z,57.58
2019-03-28T20:50:01.473Z,61.50
2019-03-28T20:52:29.809Z,63.07
2019-03-28T20:54:57.904Z,67.00
2019-03-28T20:57:29.982Z,70.37
2019-03-28T20:59:58.224Z,68.07
2019-03-28T21:02:28.145Z,66.73
2019-03-28T21:04:56.388Z,61.50
2019-03-28T21:07:27.419Z,62.00
2019-03-28T21:09:55.611Z,64.97
2019-03-28T21:12:23.856Z,61.20
2019-03-28T21:14:52.089Z,66.63
2019-03-28T21:17:20.279Z,66.30
2019-03-28T21:19:48.548Z,60.87
2019-03-28T21:22:16.682Z,65.63
2019-03-28T21:24:44.812Z,64.70
2019-03-28T21:27:12.938Z,69.70
2019-03-28T21:29:48.819Z,62.83
2019-03-28T21:32:20.479Z,68.53
2019-03-28T21:34:44.627Z,65.57
2019-03-28T21:37:15.340Z,65.20
2019-03-28T21:39:43.489Z,60.70
2019-03-28T21:42:12.390Z,60.13
2019-03-28T21:44:40.634Z,64.15
2019-03-28T21:47:08.824Z,59.80
2019-03-28T21:49:37.008Z,62.23
2019-03-28T21:52:07.525Z,64.77
2019-03-28T21:54:35.061Z,71.00
2019-03-28T21:57:03.237Z,71.03
2019-03-28T21:59:33.812Z,74.62
2019-03-28T22:02:01.226Z,64.57
2019-03-28T22:04:30.149Z,70.20
2019-03-28T22:06:58.278Z,71.60
2019-03-28T22:09:26.379Z,75.60
2019-03-28T22:11:54.491Z,72.92
2019-03-28T22:14:22.681Z,67.83
2019-03-28T22:16:50.817Z,69.17
2019-03-28T22:19:19.029Z,79.43
2019-03-28T22:21:47.631Z,69.00
2019-03-28T22:24:15.755Z,75.03
2019-03-28T22:26:46.056Z,76.83
2019-03-28T22:29:13.805Z,71.70
2019-03-28T22:31:41.920Z,72.73
2019-03-28T22:34:10.119Z,73.40
2019-03-28T22:36:38.236Z,69.07
2019-03-28T22:39:06.851Z,72.10
2019-03-28T22:41:34.961Z,72.17
2019-03-28T22:44:03.203Z,72.00
2019-03-28T22:46:31.309Z,69.53
2019-03-28T22:48:59.493Z,68.43
2019-03-28T22:51:27.611Z,70.07
2019-03-28T22:53:55.904Z,70.30
2019-03-28T22:56:25.531Z,71.90
2019-03-28T22:58:53.671Z,72.50
2019-03-28T23:01:21.769Z,67.40
2019-03-28T23:03:49.883Z,70.03
2019-03-28T23:06:18.015Z,63.80
2019-03-28T23:08:46.207Z,71.45
2019-03-28T23:11:14.415Z,71.23
2019-03-28T23:13:42.632Z,69.37
2019-03-28T23:16:10.811Z,74.03
2019-03-28T23:18:39.967Z,77.87
2019-03-28T23:21:09.921Z,71.97
2019-03-28T23:23:38.108Z,76.10
2019-03-28T23:26:06.220Z,81.73
2019-03-28T23:28:34.336Z,81.53
2019-03-28T23:31:02.483Z,72.33
2019-03-28T23:33:50.007Z,81.83
2019-03-28T23:36:18.111Z,73.25
2019-03-28T23:38:46.244Z,72.93
2019-03-28T23:41:14.397Z,78.00
2019-03-28T23:43:42.518Z,79.00
2019-03-28T23:46:11.755Z,75.60
2019-03-28T23:48:40.024Z,79.20
2019-03-28T23:51:08.123Z,73.43
2019-03-28T23:53:36.260Z,77.60
2019-03-28T23:56:04.456Z,77.10
2019-03-28T23:58:32.572Z,69.73
